Time;durP1;ratioP1;P1;durP2;ratioP2;P2;SDS_P1;SDS_P2;PMS_P1;PMS_P2;Temp;Humidity;BMP_temperature;BMP_pressure;BME280_temperature;BME280_humidity;BME280_pressure;Samples;Min_cycle;Max_cycle;Signal;HPM_P1;HPM_P2
2021/12/03 00:00:54;;;;;;;11.30;4.30;;;2.40;97.50;;;;;;5051302;28;20393;-70
2021/12/03 00:03:23;;;;;;;9.57;4.55;;;2.40;97.30;;;;;;5050861;28;20057;-69
2021/12/03 00:05:51;;;;;;;8.82;4.03;;;2.40;97.00;;;;;;5051259;28;20045;-69
2021/12/03 00:08:19;;;;;;;8.23;3.40;;;2.40;96.90;;;;;;5034361;28;20052;-70
2021/12/03 00:10:53;;;;;;;13.48;3.90;;;2.50;97.10;;;;;;5049917;28;20041;-69
2021/12/03 00:13:20;;;;;;;7.70;4.40;;;2.50;96.80;;;;;;5050529;28;20037;-71
2021/12/03 00:15:47;;;;;;;14.20;5.32;;;2.50;96.40;;;;;;5051523;28;20406;-69
2021/12/03 00:18:14;;;;;;;9.38;3.70;;;2.60;96.70;;;;;;5050250;28;20057;-69
2021/12/03 00:20:41;;;;;;;15.30;3.55;;;2.60;95.50;;;;;;5032901;28;20076;-71
2021/12/03 00:23:08;;;;;;;10.55;3.28;;;2.60;96.20;;;;;;5050280;28;20075;-69
2021/12/03 00:25:35;;;;;;;8.43;3.25;;;2.60;96.80;;;;;;5050310;28;20049;-70
2021/12/03 00:28:03;;;;;;;8.18;3.33;;;2.70;96.10;;;;;;5033922;28;20122;-69
2021/12/03 00:30:32;;;;;;;12.68;3.08;;;2.60;96.10;;;;;;5050914;28;20121;-69
2021/12/03 00:32:59;;;;;;;8.95;2.90;;;2.70;95.90;;;;;;5051453;28;20052;-69
2021/12/03 00:35:26;;;;;;;8.90;3.05;;;2.70;95.40;;;;;;5047156;28;20048;-69
2021/12/03 00:37:53;;;;;;;11.38;3.67;;;2.70;95.70;;;;;;5032223;28;20051;-69
2021/12/03 00:40:25;;;;;;;8.45;4.30;;;2.70;95.00;;;;;;5029848;28;20838;-69
2021/12/03 00:42:52;;;;;;;9.82;2.83;;;2.80;95.50;;;;;;5045052;28;20053;-70
2021/12/03 00:45:20;;;;;;;5.03;2.65;;;2.80;95.70;;;;;;5049626;28;20053;-71
2021/12/03 00:47:47;;;;;;;13.45;4.18;;;2.80;95.50;;;;;;5049827;28;20504;-72
2021/12/03 00:50:17;;;;;;;8.18;2.53;;;2.80;95.10;;;;;;5030325;28;20419;-70
2021/12/03 00:52:44;;;;;;;7.13;4.88;;;2.80;95.80;;;;;;5049355;28;20049;-70
2021/12/03 00:55:13;;;;;;;7.28;2.80;;;2.90;96.10;;;;;;5051719;28;20049;-70
2021/12/03 00:57:40;;;;;;;13.93;4.03;;;2.80;95.50;;;;;;5049873;28;20045;-70
2021/12/03 01:00:12;;;;;;;11.35;4.32;;;2.90;95.40;;;;;;5051086;28;20045;-70
2021/12/03 01:02:39;;;;;;;14.60;4.15;;;2.90;95.60;;;;;;5049749;28;20045;-70
2021/12/03 01:05:07;;;;;;;9.93;4.22;;;2.90;96.60;;;;;;5030214;28;20543;-70
2021/12/03 01:07:36;;;;;;;7.22;2.72;;;2.90;95.60;;;;;;5041202;28;20060;-71
2021/12/03 01:10:04;;;;;;;11.07;3.20;;;2.90;95.70;;;;;;5031469;28;20061;-70
2021/12/03 01:12:31;;;;;;;5.45;2.75;;;2.90;95.30;;;;;;5051296;28;20132;-70
2021/12/03 01:14:58;;;;;;;8.38;2.50;;;2.90;95.00;;;;;;5032817;28;20514;-70
2021/12/03 01:17:25;;;;;;;5.28;2.45;;;2.90;95.40;;;;;;5050009;28;20048;-70
2021/12/03 01:19:52;;;;;;;7.45;2.85;;;2.90;95.00;;;;;;5048830;28;20049;-70
2021/12/03 01:22:19;;;;;;;10.43;3.05;;;2.90;95.20;;;;;;5033075;28;20056;-70
2021/12/03 01:24:46;;;;;;;7.65;2.53;;;2.90;95.80;;;;;;5032828;28;20041;-70
2021/12/03 01:27:13;;;;;;;6.80;2.40;;;2.90;95.20;;;;;;5050913;28;20438;-70
2021/12/03 01:29:41;;;;;;;7.70;3.20;;;2.90;95.20;;;;;;5033054;28;20059;-70
2021/12/03 01:32:08;;;;;;;4.55;2.97;;;2.90;94.60;;;;;;5041728;28;20037;-69
2021/12/03 01:34:34;;;;;;;7.70;2.45;;;2.90;94.80;;;;;;5032924;28;20575;-71
2021/12/03 01:37:01;;;;;;;8.02;2.90;;;2.90;94.50;;;;;;5028916;28;20056;-71
2021/12/03 01:39:28;;;;;;;8.48;2.88;;;3.00;93.70;;;;;;5050420;28;20045;-69
2021/12/03 01:41:55;;;;;;;6.70;2.67;;;3.00;93.80;;;;;;5015789;28;20044;-71
2021/12/03 01:44:22;;;;;;;6.32;2.25;;;3.00;94.10;;;;;;5050413;28;20052;-71
2021/12/03 01:46:49;;;;;;;7.10;2.47;;;3.00;94.20;;;;;;5051716;28;20056;-71
2021/12/03 01:49:16;;;;;;;3.80;2.55;;;3.00;93.50;;;;;;5050695;28;20106;-70
2021/12/03 01:51:43;;;;;;;4.47;2.65;;;3.00;93.40;;;;;;5048855;28;20070;-71
2021/12/03 01:54:10;;;;;;;7.95;3.35;;;3.00;93.00;;;;;;5049053;28;20045;-70
2021/12/03 01:56:39;;;;;;;8.43;2.70;;;3.10;93.30;;;;;;5048336;28;20051;-70
2021/12/03 01:59:07;;;;;;;8.02;2.53;;;3.10;93.20;;;;;;5029275;28;20053;-71
2021/12/03 02:01:34;;;;;;;7.25;2.92;;;3.10;93.00;;;;;;5041763;28;20040;-71
2021/12/03 02:04:01;;;;;;;7.80;3.13;;;3.10;93.00;;;;;;5049003;28;20048;-71
2021/12/03 02:06:29;;;;;;;5.75;2.33;;;3.10;92.90;;;;;;5049412;28;20083;-71
2021/12/03 02:08:56;;;;;;;7.78;2.47;;;3.20;92.60;;;;;;5041408;28;20045;-71
2021/12/03 02:11:23;;;;;;;6.22;2.47;;;3.20;92.10;;;;;;5032201;28;20044;-71
2021/12/03 02:13:50;;;;;;;5.90;2.33;;;3.20;91.80;;;;;;5013180;28;20079;-71
2021/12/03 02:16:17;;;;;;;9.13;2.72;;;3.30;91.50;;;;;;5048720;28;20048;-70
2021/12/03 02:18:44;;;;;;;7.60;2.40;;;3.30;91.40;;;;;;5048696;28;20102;-70
2021/12/03 02:21:11;;;;;;;7.63;2.47;;;3.30;91.40;;;;;;5047346;28;20116;-70
2021/12/03 02:23:38;;;;;;;5.07;2.28;;;3.30;91.50;;;;;;5048870;28;20041;-70
2021/12/03 02:26:05;;;;;;;6.80;2.67;;;3.30;92.00;;;;;;5048237;28;20084;-70
2021/12/03 02:28:34;;;;;;;9.23;2.40;;;3.30;91.60;;;;;;5049268;28;20144;-70
2021/12/03 02:31:03;;;;;;;9.43;2.57;;;3.30;92.10;;;;;;5031881;28;20409;-70
2021/12/03 02:33:33;;;;;;;6.72;2.22;;;3.40;91.30;;;;;;5048722;28;20297;-71
2021/12/03 02:36:00;;;;;;;;;;;3.40;91.60;;;;;;5048648;28;20140;-70
2021/12/03 02:38:27;;;;;;;4.57;1.95;;;3.50;91.30;;;;;;5053870;28;19920;-70
2021/12/03 02:40:54;;;;;;;9.52;3.30;;;3.50;92.00;;;;;;5046216;28;20266;-71
2021/12/03 02:43:22;;;;;;;6.55;2.55;;;3.50;92.40;;;;;;5049372;28;20045;-71
2021/12/03 02:45:50;;;;;;;5.43;2.22;;;3.50;92.50;;;;;;5046558;28;20145;-71
2021/12/03 02:48:18;;;;;;;7.50;2.42;;;3.50;93.20;;;;;;5047397;28;20387;-71
2021/12/03 02:50:46;;;;;;;5.43;2.03;;;3.50;93.10;;;;;;5029204;28;20119;-71
2021/12/03 02:53:13;;;;;;;3.72;1.48;;;3.50;93.80;;;;;;5031776;28;20045;-70
2021/12/03 02:55:40;;;;;;;6.15;1.90;;;3.50;94.20;;;;;;5047761;28;20061;-69
2021/12/03 02:58:07;;;;;;;3.83;1.80;;;3.40;94.30;;;;;;5048223;28;20097;-70
2021/12/03 03:00:34;;;;;;;6.45;1.85;;;3.50;94.60;;;;;;5048590;28;20326;-70
2021/12/03 03:03:01;;;;;;;3.78;1.70;;;3.40;94.50;;;;;;5026878;28;20445;-70
2021/12/03 03:05:29;;;;;;;3.15;1.42;;;3.40;94.70;;;;;;5045565;28;20044;-70
2021/12/03 03:07:56;;;;;;;4.00;1.92;;;3.40;94.30;;;;;;5031195;28;20049;-70
2021/12/03 03:10:28;;;;;;;3.38;1.70;;;3.40;94.70;;;;;;5047627;28;20420;-71
2021/12/03 03:12:55;;;;;;;5.85;1.85;;;3.40;94.70;;;;;;5038216;28;20041;-70
2021/12/03 03:15:22;;;;;;;3.22;1.60;;;3.40;95.00;;;;;;5030086;28;20052;-70
2021/12/03 03:17:49;;;;;;;3.35;1.90;;;3.30;94.70;;;;;;5015336;28;20056;-70
2021/12/03 03:20:16;;;;;;;4.60;1.63;;;3.30;94.60;;;;;;5046736;28;20394;-70
2021/12/03 03:22:44;;;;;;;5.50;1.83;;;3.30;94.60;;;;;;5044243;28;20037;-70
2021/12/03 03:25:12;;;;;;;3.72;1.73;;;3.40;94.80;;;;;;5014379;28;20089;-70
2021/12/03 03:27:40;;;;;;;2.38;1.85;;;3.30;95.10;;;;;;5029491;28;20069;-70
2021/12/03 03:30:09;;;;;;;6.50;2.30;;;3.40;95.30;;;;;;5048154;28;20112;-71
2021/12/03 03:32:36;;;;;;;3.85;2.17;;;3.30;95.70;;;;;;5031910;28;20093;-70
2021/12/03 03:35:03;;;;;;;3.30;1.60;;;3.40;95.30;;;;;;5049208;28;20049;-70
2021/12/03 03:37:30;;;;;;;6.22;2.40;;;3.30;95.80;;;;;;5031603;28;20057;-70
2021/12/03 03:39:57;;;;;;;3.08;1.80;;;3.30;95.40;;;;;;5031811;28;20053;-70
2021/12/03 03:42:24;;;;;;;8.93;1.98;;;3.30;96.00;;;;;;5045950;28;20052;-70
2021/12/03 03:44:52;;;;;;;6.13;2.30;;;3.30;95.30;;;;;;5048126;28;20047;-70
2021/12/03 03:47:19;;;;;;;3.30;2.05;;;3.30;96.20;;;;;;5048816;28;20053;-69
2021/12/03 03:49:46;;;;;;;6.38;2.33;;;3.20;96.30;;;;;;5048845;28;20370;-70
2021/12/03 03:52:13;;;;;;;8.10;2.15;;;3.20;97.40;;;;;;5048359;28;20048;-69
2021/12/03 03:54:40;;;;;;;5.93;1.80;;;3.10;97.40;;;;;;5049031;28;20052;-69
2021/12/03 03:57:07;;;;;;;7.38;2.65;;;3.10;98.20;;;;;;5047867;28;20472;-70
2021/12/03 03:59:34;;;;;;;4.65;1.90;;;3.10;98.40;;;;;;5045610;28;20385;-70
2021/12/03 04:02:02;;;;;;;4.10;1.65;;;3.00;99.00;;;;;;5047376;28;20052;-69
2021/12/03 04:04:31;;;;;;;6.82;1.90;;;3.00;99.70;;;;;;5048683;28;20420;-69
2021/12/03 04:06:58;;;;;;;3.40;1.77;;;2.90;99.90;;;;;;5049429;28;20052;-69
2021/12/03 04:09:25;;;;;;;3.97;1.75;;;2.90;99.90;;;;;;5048306;28;20118;-70
2021/12/03 04:11:52;;;;;;;13.30;1.80;;;2.80;99.90;;;;;;5047862;28;20045;-69
2021/12/03 04:14:19;;;;;;;5.43;1.90;;;2.80;99.90;;;;;;5029451;28;20048;-69
2021/12/03 04:16:46;;;;;;;10.68;2.67;;;2.80;99.90;;;;;;5051604;28;20472;-69
2021/12/03 04:19:12;;;;;;;5.82;2.53;;;2.80;99.90;;;;;;5050642;28;20061;-69
2021/12/03 04:21:39;;;;;;;6.72;3.38;;;2.80;99.90;;;;;;5053076;28;20052;-71
2021/12/03 04:24:06;;;;;;;5.07;2.03;;;2.80;99.90;;;;;;5055742;28;20068;-70
2021/12/03 04:26:33;;;;;;;5.65;2.00;;;2.80;99.90;;;;;;5052223;28;20048;-69
2021/12/03 04:29:00;;;;;;;6.00;2.13;;;2.80;99.90;;;;;;5051562;28;20507;-69
2021/12/03 04:31:28;;;;;;;3.28;1.85;;;2.80;99.90;;;;;;5052176;28;20124;-69
2021/12/03 04:33:56;;;;;;;2.60;1.55;;;2.90;99.90;;;;;;5050038;28;20048;-70
2021/12/03 04:36:23;;;;;;;3.95;1.85;;;2.90;99.90;;;;;;5050874;28;20515;-69
2021/12/03 04:38:50;;;;;;;4.15;1.98;;;2.90;99.90;;;;;;5051493;28;20049;-69
2021/12/03 04:41:17;;;;;;;8.07;2.55;;;2.90;99.90;;;;;;5049769;28;20049;-70
2021/12/03 04:43:44;;;;;;;5.18;2.08;;;2.90;99.90;;;;;;5050751;28;20056;-68
2021/12/03 04:46:11;;;;;;;3.55;1.77;;;3.00;99.90;;;;;;5049911;28;20156;-71
2021/12/03 04:48:38;;;;;;;5.00;2.03;;;3.00;99.90;;;;;;5049612;28;20481;-69
2021/12/03 04:51:06;;;;;;;3.25;1.60;;;3.00;99.90;;;;;;5050721;28;20060;-70
2021/12/03 04:53:33;;;;;;;6.50;2.28;;;3.10;99.90;;;;;;5050715;28;20049;-70
2021/12/03 04:56:00;;;;;;;4.30;1.52;;;3.10;99.90;;;;;;5046652;28;20048;-70
2021/12/03 04:58:27;;;;;;;3.38;1.65;;;3.20;99.90;;;;;;5017003;28;20072;-70
2021/12/03 05:00:54;;;;;;;3.05;2.03;;;3.20;99.90;;;;;;5031723;28;20052;-69
2021/12/03 05:03:24;;;;;;;7.45;1.48;;;3.20;99.90;;;;;;5049817;28;20052;-69
2021/12/03 05:05:55;;;;;;;5.07;2.58;;;3.20;99.90;;;;;;5034414;28;20051;-69
2021/12/03 05:08:26;;;;;;;4.13;1.50;;;3.20;99.90;;;;;;5051408;28;20041;-69
2021/12/03 05:10:53;;;;;;;4.45;1.40;;;3.20;99.90;;;;;;5050231;28;20052;-69
2021/12/03 05:13:40;;;;;;;3.10;1.40;;;3.30;99.90;;;;;;5050027;28;20040;-69
2021/12/03 05:16:07;;;;;;;3.25;1.80;;;3.30;99.90;;;;;;5032269;28;20059;-69
2021/12/03 05:18:34;;;;;;;3.63;1.70;;;3.40;99.90;;;;;;5041044;28;20135;-69
2021/12/03 05:21:02;;;;;;;2.03;1.20;;;3.40;99.90;;;;;;5050005;28;20065;-69
2021/12/03 05:23:30;;;;;;;3.22;1.48;;;3.40;99.90;;;;;;5049020;28;20087;-69
2021/12/03 05:25:57;;;;;;;4.43;1.73;;;3.50;99.90;;;;;;5050183;28;20048;-69
2021/12/03 05:28:25;;;;;;;3.00;1.17;;;3.50;99.90;;;;;;5038759;28;20055;-70
2021/12/03 05:30:52;;;;;;;2.72;1.30;;;3.50;99.90;;;;;;5051670;28;20045;-69
2021/12/03 05:33:20;;;;;;;2.50;1.40;;;3.60;99.90;;;;;;5049939;28;20053;-69
2021/12/03 05:35:47;;;;;;;2.22;1.00;;;3.60;99.90;;;;;;5049056;28;20120;-69
2021/12/03 05:38:14;;;;;;;7.07;1.55;;;3.60;99.90;;;;;;5049805;28;20060;-69
2021/12/03 05:40:41;;;;;;;3.40;1.23;;;3.60;99.90;;;;;;5051429;28;20045;-70
2021/12/03 05:43:08;;;;;;;5.95;1.35;;;3.70;99.90;;;;;;5047724;28;20041;-69
2021/12/03 05:45:36;;;;;;;2.40;1.40;;;3.70;99.90;;;;;;5049622;28;20129;-69
2021/12/03 05:48:03;;;;;;;4.13;2.25;;;3.80;99.90;;;;;;5049132;28;20037;-70
2021/12/03 05:50:30;;;;;;;4.20;1.75;;;3.80;99.90;;;;;;5051225;28;20451;-70
2021/12/03 05:52:57;;;;;;;4.82;2.40;;;3.90;99.90;;;;;;5050274;28;20053;-70
2021/12/03 05:55:24;;;;;;;7.60;3.25;;;3.90;99.90;;;;;;5049306;28;20469;-70
2021/12/03 05:57:51;;;;;;;5.00;1.60;;;3.90;99.90;;;;;;5049022;28;20052;-70
2021/12/03 06:00:27;;;;;;;3.33;1.40;;;3.90;99.90;;;;;;5049724;28;20118;-70
2021/12/03 06:02:57;;;;;;;4.45;2.38;;;3.90;99.90;;;;;;5032206;28;20398;-70
2021/12/03 06:05:28;;;;;;;2.42;1.15;;;4.00;99.90;;;;;;5049546;28;20056;-70
2021/12/03 06:07:55;;;;;;;3.00;1.20;;;4.00;99.90;;;;;;5048705;28;20101;-70
2021/12/03 06:10:22;;;;;;;3.00;1.10;;;4.00;99.90;;;;;;5028747;28;20068;-70
2021/12/03 06:12:49;;;;;;;2.20;1.10;;;4.10;99.90;;;;;;5037414;28;20108;-70
2021/12/03 06:15:17;;;;;;;4.75;1.35;;;4.10;99.90;;;;;;5048444;28;20060;-70
2021/12/03 06:17:44;;;;;;;3.10;1.23;;;4.20;99.90;;;;;;5048454;28;20056;-69
2021/12/03 06:20:11;;;;;;;2.85;1.27;;;4.20;99.90;;;;;;5030703;28;20067;-70
2021/12/03 06:22:39;;;;;;;1.65;0.90;;;4.20;99.90;;;;;;5050043;28;20049;-69
2021/12/03 06:25:07;;;;;;;2.30;1.08;;;4.30;99.90;;;;;;5049091;28;20052;-70
2021/12/03 06:27:33;;;;;;;1.98;1.08;;;4.30;99.90;;;;;;5048339;28;20056;-69
2021/12/03 06:30:03;;;;;;;1.98;1.27;;;4.30;99.90;;;;;;5032516;28;20048;-70
2021/12/03 06:32:30;;;;;;;2.38;1.10;;;4.40;99.90;;;;;;5049849;28;20045;-68
2021/12/03 06:34:57;;;;;;;1.50;0.90;;;4.40;99.90;;;;;;5015133;28;20113;-69
2021/12/03 06:37:24;;;;;;;2.08;1.02;;;4.50;99.90;;;;;;5050225;28;20048;-69
2021/12/03 06:39:50;;;;;;;2.97;1.30;;;4.60;99.90;;;;;;5029762;28;20416;-71
2021/12/03 06:42:17;;;;;;;1.50;0.95;;;4.60;99.90;;;;;;5049839;28;20055;-70
2021/12/03 06:44:44;;;;;;;2.78;1.23;;;4.60;99.90;;;;;;5048999;28;20435;-71
2021/12/03 06:47:11;;;;;;;1.98;1.38;;;4.70;99.90;;;;;;5047718;28;20465;-70
2021/12/03 06:49:38;;;;;;;1.23;0.95;;;4.70;99.90;;;;;;5047235;28;21222;-71
2021/12/03 06:52:08;;;;;;;1.52;0.93;;;4.80;99.90;;;;;;5049172;28;20037;-70
2021/12/03 06:54:36;;;;;;;1.42;0.90;;;4.80;99.90;;;;;;5047962;28;20049;-71
2021/12/03 06:57:05;;;;;;;1.27;1.00;;;4.90;99.90;;;;;;5051223;28;20057;-70
2021/12/03 06:59:32;;;;;;;1.10;1.00;;;4.90;99.90;;;;;;5010051;28;20097;-70
2021/12/03 07:01:59;;;;;;;0.77;0.77;;;5.00;99.90;;;;;;5048413;28;20064;-70
2021/12/03 07:04:26;;;;;;;2.10;1.25;;;5.00;99.90;;;;;;5030652;28;20059;-69
2021/12/03 07:06:53;;;;;;;9.80;7.10;;;5.10;99.90;;;;;;5044184;28;20481;-68
2021/12/03 07:09:20;;;;;;;9.40;6.68;;;5.10;99.90;;;;;;5032774;28;20060;-68
2021/12/03 07:11:47;;;;;;;21.80;13.50;;;5.20;99.90;;;;;;5043974;28;20073;-67
2021/12/03 07:14:14;;;;;;;3.92;1.80;;;5.30;99.90;;;;;;5050057;28;20511;-67
2021/12/03 07:16:41;;;;;;;11.73;4.28;;;5.30;99.90;;;;;;5048274;28;20053;-66
2021/12/03 07:19:08;;;;;;;1.23;1.00;;;5.40;99.90;;;;;;5028410;28;20052;-68
2021/12/03 07:21:35;;;;;;;1.30;0.98;;;5.40;99.90;;;;;;5029125;28;20049;-66
2021/12/03 07:24:02;;;;;;;3.30;1.10;;;5.40;99.90;;;;;;5043622;28;20041;-66
2021/12/03 07:26:28;;;;;;;1.00;0.90;;;5.50;99.90;;;;;;5016814;28;20068;-66
2021/12/03 07:28:55;;;;;;;1.40;0.98;;;5.50;99.90;;;;;;5045867;28;20052;-67
2021/12/03 07:31:22;;;;;;;1.98;1.00;;;5.50;99.90;;;;;;5048176;28;20053;-69
2021/12/03 07:33:53;;;;;;;47.85;38.05;;;5.60;99.90;;;;;;5045532;28;20053;-67
2021/12/03 07:36:20;;;;;;;10.30;6.70;;;5.70;99.90;;;;;;5045440;28;20053;-67
2021/12/03 07:38:47;;;;;;;2.92;1.60;;;5.70;99.90;;;;;;5045567;28;20707;-67
2021/12/03 07:41:14;;;;;;;1.60;1.30;;;5.80;99.90;;;;;;5046403;28;20128;-66
2021/12/03 07:43:41;;;;;;;1.33;1.00;;;5.80;99.90;;;;;;5044781;28;20064;-66
2021/12/03 07:46:08;;;;;;;1.73;1.00;;;5.90;99.90;;;;;;5030541;28;20449;-67
2021/12/03 07:48:36;;;;;;;0.82;0.80;;;5.90;99.90;;;;;;5051153;28;20390;-67
2021/12/03 07:51:03;;;;;;;1.20;0.77;;;5.90;99.90;;;;;;5050883;28;20180;-67
2021/12/03 07:53:30;;;;;;;1.10;0.75;;;6.00;99.90;;;;;;5051341;28;20286;-66
2021/12/03 07:55:57;;;;;;;1.45;0.77;;;6.10;99.90;;;;;;5050023;28;20057;-67
2021/12/03 07:58:24;;;;;;;2.17;0.80;;;6.10;99.90;;;;;;5050987;28;20049;-67
2021/12/03 08:00:54;;;;;;;1.05;0.90;;;6.20;99.90;;;;;;5049184;28;20056;-66
2021/12/03 08:03:21;;;;;;;0.85;0.85;;;6.20;99.90;;;;;;5049753;28;20132;-68
2021/12/03 08:05:49;;;;;;;2.67;1.00;;;6.30;99.90;;;;;;5048544;28;20049;-67
2021/12/03 08:08:22;;;;;;;1.48;0.82;;;6.30;99.90;;;;;;5050372;28;20049;-67
2021/12/03 08:10:50;;;;;;;1.60;0.90;;;6.40;99.90;;;;;;5049683;28;20045;-67
2021/12/03 08:13:17;;;;;;;2.15;1.38;;;6.40;99.90;;;;;;5051135;28;20047;-65
2021/12/03 08:15:44;;;;;;;0.98;0.73;;;6.50;99.90;;;;;;5048453;28;20503;-67
2021/12/03 08:18:11;;;;;;;1.42;1.10;;;6.50;99.90;;;;;;5048756;28;20067;-65
2021/12/03 08:20:38;;;;;;;1.40;0.90;;;6.60;99.90;;;;;;5050826;28;20060;-67
2021/12/03 08:23:05;;;;;;;1.52;1.00;;;6.50;99.90;;;;;;5049938;28;20392;-67
2021/12/03 08:25:32;;;;;;;2.15;0.90;;;6.60;99.90;;;;;;5049051;28;20056;-67
2021/12/03 08:27:59;;;;;;;2.38;0.80;;;6.60;99.90;;;;;;5050466;28;20110;-66
2021/12/03 08:30:29;;;;;;;2.10;1.13;;;6.70;99.90;;;;;;5049571;28;20053;-67
2021/12/03 08:32:57;;;;;;;1.75;0.77;;;6.70;99.90;;;;;;5048886;28;20041;-67
2021/12/03 08:35:26;;;;;;;123.03;64.20;;;6.70;99.90;;;;;;5033197;28;20079;-66
2021/12/03 08:37:53;;;;;;;126.40;102.13;;;6.80;99.90;;;;;;5056623;28;20046;-69
2021/12/03 08:40:22;;;;;;;6.90;4.43;;;6.90;99.90;;;;;;5057952;28;20412;-70
2021/12/03 08:42:49;;;;;;;2.53;1.80;;;6.90;99.90;;;;;;5032563;28;20053;-69
2021/12/03 08:45:18;;;;;;;3.05;1.58;;;7.00;99.90;;;;;;5048184;28;20123;-69
2021/12/03 08:47:49;;;;;;;1.77;0.90;;;7.00;99.90;;;;;;5048273;28;20046;-69
2021/12/03 08:50:26;;;;;;;3.50;1.10;;;7.10;99.90;;;;;;5028250;28;20520;-68
2021/12/03 08:55:33;;;;;;;2.90;1.33;;;7.10;99.90;;;;;;5034066;28;20049;-68
2021/12/03 08:58:00;;;;;;;1.73;1.00;;;7.10;99.90;;;;;;5049863;28;20165;-70
2021/12/03 09:00:29;;;;;;;2.63;1.70;;;7.20;99.90;;;;;;5048175;28;20055;-71
2021/12/03 09:02:56;;;;;;;2.83;1.70;;;7.20;99.90;;;;;;5048140;28;20091;-70
2021/12/03 09:05:30;;;;;;;3.55;2.30;;;7.20;99.90;;;;;;5031184;28;20060;-72
2021/12/03 09:07:57;;;;;;;4.78;2.38;;;7.30;99.90;;;;;;5032947;28;20053;-68
2021/12/03 09:10:36;;;;;;;3.00;1.43;;;7.30;99.90;;;;;;5051301;28;20159;-68
2021/12/03 09:13:04;;;;;;;3.72;2.38;;;7.30;99.90;;;;;;5049000;28;20049;-68
2021/12/03 09:15:38;;;;;;;9.77;2.13;;;7.30;99.90;;;;;;5015762;28;20559;-68
2021/12/03 09:18:25;;;;;;;39.15;25.38;;;7.40;99.90;;;;;;5049868;28;20053;-65
2021/12/03 09:26:23;;;;;;;3.35;2.38;;;7.50;99.90;;;;;;5034155;28;20107;-67
2021/12/03 09:28:57;;;;;;;3.85;1.90;;;7.50;99.90;;;;;;5050812;28;20049;-67
2021/12/03 09:31:24;;;;;;;4.05;1.52;;;7.60;99.90;;;;;;5050692;28;20140;-67
2021/12/03 09:33:51;;;;;;;5.10;1.98;;;7.60;99.90;;;;;;5051694;28;20106;-70
2021/12/03 09:36:18;;;;;;;4.95;2.00;;;7.60;99.90;;;;;;5050855;28;20055;-71
2021/12/03 09:38:45;;;;;;;3.45;1.73;;;7.70;99.90;;;;;;5033322;28;20041;-71
2021/12/03 09:41:17;;;;;;;6.32;1.85;;;7.70;99.90;;;;;;5030329;28;20104;-69
2021/12/03 09:44:08;;;;;;;6.68;2.75;;;7.70;99.90;;;;;;5045033;28;20405;-68
2021/12/03 09:46:35;;;;;;;5.30;2.80;;;7.70;99.90;;;;;;5050921;28;20049;-71
2021/12/03 09:51:37;;;;;;;5.95;2.20;;;7.90;99.90;;;;;;5048253;28;20044;-71
2021/12/03 09:56:50;;;;;;;7.35;2.80;;;8.00;99.90;;;;;;5050138;28;20049;-69
2021/12/03 10:41:50;;;;;;;2.60;1.60;;;9.20;99.90;;;;;;5040550;28;20119;-68
2021/12/03 10:44:31;;;;;;;2.28;1.50;;;9.20;99.90;;;;;;5049898;28;20395;-66
2021/12/03 10:47:07;;;;;;;6.03;1.73;;;9.20;99.90;;;;;;5049779;28;20092;-69
2021/12/03 10:52:54;;;;;;;3.95;2.00;;;9.40;99.90;;;;;;5044383;28;20143;-65
2021/12/03 11:16:00;;;;;;;5.03;1.90;;;9.40;99.90;;;;;;5044538;28;20127;-69
2021/12/03 11:18:56;;;;;;;3.58;1.70;;;9.50;99.90;;;;;;5039230;28;20045;-69
2021/12/03 11:57:38;;;;;;;30.60;23.73;;;10.10;99.90;;;;;;5039115;28;20049;-68
2021/12/03 11:59:49;;;;;;;7.57;5.30;;;10.20;99.90;;;;;;5055364;28;20401;-67
2021/12/03 12:03:11;;;;;;;8.63;4.75;;;10.30;99.90;;;;;;5041459;28;20095;-77
2021/12/03 12:38:30;;;;;;;3.65;1.80;;;10.30;99.90;;;;;;5051452;28;20049;-66
2021/12/03 12:58:21;;;;;;;4.15;3.20;;;10.40;99.90;;;;;;5049395;28;20048;-66
2021/12/03 14:00:31;;;;;;;4.97;2.92;;;10.30;99.90;;;;;;5049166;28;20147;-68
2021/12/03 14:06:11;;;;;;;4.35;2.90;;;10.20;99.90;;;;;;5050464;28;20088;-83
2021/12/03 14:46:59;;;;;;;7.65;5.80;;;9.80;99.90;;;;;;5040936;28;20053;-65
2021/12/03 14:52:14;;;;;;;9.55;7.63;;;9.80;99.90;;;;;;5049647;28;20059;-62
2021/12/03 14:57:48;;;;;;;5.80;4.85;;;9.80;99.90;;;;;;5019735;28;20068;-63
2021/12/03 15:00:19;;;;;;;10.25;5.63;;;9.70;99.90;;;;;;5036245;28;20069;-63
2021/12/03 15:08:12;;;;;;;5.30;4.28;;;9.60;99.90;;;;;;5049464;28;20091;-64
2021/12/03 15:21:34;;;;;;;38.22;31.77;;;9.60;99.90;;;;;;5048316;28;20061;-64
2021/12/03 15:31:51;;;;;;;155.95;116.90;;;9.60;99.90;;;;;;5054211;28;20048;-66
2021/12/03 16:03:48;;;;;;;7.28;6.00;;;9.50;99.90;;;;;;5023574;28;20081;-69
2021/12/03 16:09:11;;;;;;;13.52;10.25;;;9.50;99.90;;;;;;5035092;28;20041;-68
2021/12/03 16:22:43;;;;;;;7.53;5.97;;;9.50;99.90;;;;;;5061777;28;20052;-68
2021/12/03 16:47:28;;;;;;;25.02;12.80;;;9.30;99.90;;;;;;5052928;28;20055;-70
2021/12/03 16:52:50;;;;;;;29.23;13.60;;;9.30;99.90;;;;;;5048981;28;20068;-69
2021/12/03 16:55:23;;;;;;;23.75;13.30;;;9.30;99.90;;;;;;5041363;28;20053;-70
2021/12/03 16:57:55;;;;;;;22.40;12.43;;;9.30;99.90;;;;;;5053076;28;20103;-70
2021/12/03 17:03:03;;;;;;;20.73;12.20;;;9.30;99.90;;;;;;5033928;28;20045;-69
2021/12/03 17:47:33;;;;;;;19.98;14.70;;;8.70;99.90;;;;;;5005764;28;20094;-70
2021/12/03 18:00:45;;;;;;;20.30;15.05;;;8.40;99.90;;;;;;5048482;28;20052;-69
2021/12/03 18:03:14;;;;;;;19.23;14.60;;;8.40;99.90;;;;;;5043472;28;20056;-68
2021/12/03 18:49:12;;;;;;;25.13;19.45;;;8.20;99.90;;;;;;5031771;28;20053;-66
2021/12/03 18:54:47;;;;;;;25.95;18.17;;;8.20;99.90;;;;;;5029693;28;20059;-68
2021/12/03 18:57:19;;;;;;;26.52;18.58;;;8.20;99.90;;;;;;5049682;28;20049;-68
2021/12/03 19:00:21;;;;;;;29.60;20.67;;;8.20;99.90;;;;;;5050016;28;20053;-68
2021/12/03 19:02:40;;;;;;;28.58;18.88;;;8.20;99.90;;;;;;5041594;28;20044;-68
2021/12/03 19:05:26;;;;;;;31.40;22.67;;;8.20;99.90;;;;;;5030151;28;20381;-68
2021/12/03 19:10:31;;;;;;;37.80;25.10;;;8.20;99.90;;;;;;5049424;28;20041;-67
2021/12/03 19:13:03;;;;;;;43.08;27.48;;;8.20;99.90;;;;;;5048931;28;20053;-68
2021/12/03 19:15:30;;;;;;;46.50;28.52;;;8.20;99.90;;;;;;5048787;28;20049;-67
2021/12/03 19:18:01;;;;;;;44.13;28.10;;;8.20;99.90;;;;;;5048249;28;20055;-69
2021/12/03 19:20:49;;;;;;;41.85;27.17;;;8.20;99.90;;;;;;5047201;28;20053;-79
2021/12/03 19:23:16;;;;;;;46.33;27.88;;;8.10;99.90;;;;;;5031572;28;20060;-67
2021/12/03 19:25:43;;;;;;;41.83;27.38;;;8.10;99.90;;;;;;5049761;28;20079;-67
2021/12/03 19:28:13;;;;;;;70.50;44.72;;;8.10;99.90;;;;;;5032542;28;20056;-67
2021/12/03 19:30:41;;;;;;;77.80;53.17;;;8.10;99.90;;;;;;5032703;28;20053;-67
2021/12/03 19:33:08;;;;;;;45.08;30.00;;;8.10;99.90;;;;;;5031692;28;20479;-68
2021/12/03 19:35:37;;;;;;;40.90;27.90;;;8.10;99.90;;;;;;5048474;28;20071;-67
2021/12/03 19:38:05;;;;;;;37.05;24.33;;;8.10;99.90;;;;;;5048793;28;20427;-67
2021/12/03 19:40:34;;;;;;;39.22;23.77;;;8.10;99.90;;;;;;5048737;28;20052;-67
2021/12/03 19:43:10;;;;;;;31.00;22.17;;;8.10;99.90;;;;;;5018825;28;20049;-65
2021/12/03 19:45:49;;;;;;;127.05;93.72;;;8.10;99.90;;;;;;5052396;28;20053;-68
2021/12/03 19:48:16;;;;;;;557.17;498.98;;;8.10;99.90;;;;;;5037523;28;20059;-67
2021/12/03 19:50:45;;;;;;;106.63;92.75;;;8.10;99.90;;;;;;5054262;28;20049;-66
2021/12/03 19:53:13;;;;;;;44.80;33.23;;;8.00;99.90;;;;;;5052046;28;20044;-66
2021/12/03 19:55:44;;;;;;;30.92;25.02;;;8.00;99.90;;;;;;5051959;28;20056;-67
2021/12/03 19:58:13;;;;;;;30.58;22.35;;;8.00;99.90;;;;;;5031875;28;20052;-66
2021/12/03 20:00:40;;;;;;;29.38;21.13;;;8.00;99.90;;;;;;5051648;28;20072;-64
2021/12/03 20:03:09;;;;;;;37.90;24.13;;;8.00;99.90;;;;;;5054166;28;20053;-67
2021/12/03 20:05:37;;;;;;;31.48;19.95;;;8.00;99.90;;;;;;5052110;28;20052;-67
2021/12/03 20:08:05;;;;;;;27.48;19.33;;;8.00;99.90;;;;;;5035402;28;20457;-67
2021/12/03 20:10:37;;;;;;;28.30;18.77;;;7.90;99.90;;;;;;5064300;28;20125;-67
2021/12/03 20:13:06;;;;;;;25.90;19.85;;;7.90;99.90;;;;;;5032546;28;20485;-77
2021/12/03 20:15:47;;;;;;;436.05;392.63;;;7.90;99.90;;;;;;5032365;28;20081;-75
2021/12/03 20:20:48;;;;;;;55.15;41.42;;;7.90;99.90;;;;;;5051341;28;20047;-67
2021/12/03 20:28:52;;;;;;;29.95;20.50;;;7.90;99.90;;;;;;5042439;28;20056;-67
2021/12/03 20:31:22;;;;;;;26.77;18.23;;;7.80;99.90;;;;;;5051605;28;20057;-66
2021/12/03 20:39:15;;;;;;;25.52;19.27;;;7.80;99.90;;;;;;5033938;28;20053;-67
2021/12/03 20:49:50;;;;;;;25.05;19.25;;;7.80;99.90;;;;;;5051143;28;20060;-67
2021/12/03 21:08:44;;;;;;;29.95;21.73;;;7.80;99.90;;;;;;5052266;28;20072;-67
2021/12/03 21:11:21;;;;;;;28.92;22.08;;;7.80;99.90;;;;;;5056311;28;20424;-69
2021/12/03 21:13:49;;;;;;;1194.35;543.17;;;7.80;99.90;;;;;;5050669;28;20439;-66
2021/12/03 21:21:35;;;;;;;36.88;25.73;;;7.80;99.90;;;;;;5067233;28;20061;-67
2021/12/03 21:24:05;;;;;;;35.42;25.85;;;7.70;99.90;;;;;;5051639;28;20485;-67
2021/12/03 21:26:33;;;;;;;35.25;24.13;;;7.70;99.90;;;;;;5029407;28;20136;-68
2021/12/03 21:31:48;;;;;;;28.48;21.00;;;7.60;99.90;;;;;;5046201;28;20102;-67
2021/12/03 21:42:17;;;;;;;33.00;21.00;;;7.50;99.90;;;;;;5040669;28;20053;-68
2021/12/03 21:44:44;;;;;;;29.42;19.77;;;7.50;99.90;;;;;;5033678;28;20602;-68